Time;durP1;ratioP1;P1;durP2;ratioP2;P2;SDS_P1;SDS_P2;PMS_P1;PMS_P2;Temp;Humidity;BMP_temperature;BMP_pressure;BME280_temperature;BME280_humidity;BME280_pressure;Samples;Min_cycle;Max_cycle;Signal;HPM_P1;HPM_P2
2021/01/24 00:01:53;;;;;;;4.27;3.87;;;0.80;99.90;;;;;;5057578;28;20574;-59
2021/01/24 00:04:24;;;;;;;5.27;4.40;;;0.80;99.90;;;;;;5080519;28;20222;-59
2021/01/24 00:06:54;;;;;;;4.80;4.27;;;0.70;99.90;;;;;;5072550;28;20261;-59
2021/01/24 00:09:29;;;;;;;6.03;4.07;;;0.70;99.90;;;;;;5071137;28;20765;-59
2021/01/24 00:12:10;;;;;;;4.93;4.43;;;0.80;99.90;;;;;;5022746;28;20327;-60
2021/01/24 00:15:11;;;;;;;6.10;4.47;;;0.80;99.90;;;;;;5061688;28;20629;-59
2021/01/24 00:17:42;;;;;;;5.47;4.87;;;0.80;99.90;;;;;;5072711;28;20215;-59
2021/01/24 00:20:35;;;;;;;6.23;5.20;;;0.80;99.90;;;;;;5053069;28;20551;-59
2021/01/24 00:23:16;;;;;;;6.87;5.37;;;0.80;99.90;;;;;;5054541;28;20751;-59
2021/01/24 00:25:55;;;;;;;9.90;5.97;;;0.80;99.90;;;;;;5064045;28;20224;-59
2021/01/24 00:31:40;;;;;;;8.40;5.53;;;0.90;99.90;;;;;;5045375;28;20226;-59
2021/01/24 00:34:23;;;;;;;12.03;5.93;;;0.90;99.90;;;;;;5071668;28;20220;-59
2021/01/24 00:36:51;;;;;;;9.07;6.57;;;0.90;99.90;;;;;;5075345;28;20204;-60
2021/01/24 00:39:24;;;;;;;11.77;7.07;;;1.00;99.90;;;;;;5076880;28;20212;-59
2021/01/24 00:41:51;;;;;;;9.77;6.30;;;1.00;99.90;;;;;;5070209;28;20675;-60
2021/01/24 00:47:35;;;;;;;8.30;5.53;;;1.00;99.90;;;;;;5064318;28;20209;-59
2021/01/24 00:50:04;;;;;;;8.83;6.17;;;1.00;99.90;;;;;;5069502;28;20239;-60
2021/01/24 00:52:31;;;;;;;9.47;6.00;;;1.00;99.90;;;;;;5085062;28;20309;-59
2021/01/24 00:55:04;;;;;;;7.00;6.13;;;0.90;99.90;;;;;;5073896;28;20291;-59
2021/01/24 00:57:32;;;;;;;8.87;6.63;;;0.90;99.90;;;;;;5057286;28;20228;-59
2021/01/24 01:00:07;;;;;;;11.07;6.50;;;0.90;99.90;;;;;;5063076;28;20278;-59
2021/01/24 01:02:43;;;;;;;10.63;7.23;;;0.90;99.90;;;;;;5074382;28;20234;-59
2021/01/24 01:05:11;;;;;;;9.90;7.40;;;1.00;99.90;;;;;;5080438;28;20249;-59
2021/01/24 01:07:39;;;;;;;11.03;7.43;;;1.00;99.90;;;;;;5075914;28;20247;-59
2021/01/24 01:10:25;;;;;;;10.87;7.40;;;1.00;99.90;;;;;;5068336;28;20243;-59
2021/01/24 01:12:52;;;;;;;10.03;7.20;;;1.00;99.90;;;;;;5068129;28;20220;-59
2021/01/24 01:15:26;;;;;;;11.30;7.60;;;1.00;99.90;;;;;;5067832;28;20278;-59
2021/01/24 01:18:11;;;;;;;11.50;8.13;;;1.00;99.90;;;;;;5073246;28;20227;-59
2021/01/24 01:20:42;;;;;;;12.43;7.87;;;1.00;99.90;;;;;;5064180;28;20220;-59
2021/01/24 01:23:10;;;;;;;11.37;6.70;;;1.00;99.90;;;;;;5066023;28;20629;-59
2021/01/24 01:25:37;;;;;;;9.47;6.77;;;1.00;99.90;;;;;;5064380;28;20266;-59
2021/01/24 01:28:09;;;;;;;11.53;7.03;;;1.00;99.90;;;;;;5058725;28;20720;-59
2021/01/24 01:33:28;;;;;;;10.73;6.37;;;1.00;99.90;;;;;;5057724;28;20216;-59
2021/01/24 01:35:56;;;;;;;9.17;6.43;;;1.00;99.90;;;;;;5074067;28;20615;-59
2021/01/24 01:38:23;;;;;;;7.97;6.37;;;1.00;99.90;;;;;;5055551;28;20735;-59
2021/01/24 01:41:03;;;;;;;9.93;6.50;;;0.90;99.90;;;;;;5066948;28;20211;-59
2021/01/24 01:43:33;;;;;;;7.43;6.33;;;0.90;99.90;;;;;;5080450;28;20212;-59
2021/01/24 01:46:01;;;;;;;8.90;6.33;;;0.80;99.90;;;;;;5023214;28;20216;-59
2021/01/24 01:48:33;;;;;;;8.47;6.00;;;0.80;99.90;;;;;;5051278;28;20685;-59
2021/01/24 01:51:20;;;;;;;8.47;6.57;;;0.80;99.90;;;;;;5074324;28;20705;-59
2021/01/24 01:54:00;;;;;;;8.77;6.83;;;0.80;99.90;;;;;;5069788;28;20349;-59
2021/01/24 01:56:49;;;;;;;8.10;6.77;;;0.80;99.90;;;;;;5052974;28;20691;-59
2021/01/24 01:59:39;;;;;;;9.67;7.53;;;0.80;99.90;;;;;;5078824;28;20214;-59
2021/01/24 02:02:47;;;;;;;12.33;7.73;;;0.70;99.90;;;;;;5065354;28;20232;-59
2021/01/24 02:05:28;;;;;;;10.13;7.90;;;0.60;99.90;;;;;;5043845;28;20254;-59
2021/01/24 02:08:10;;;;;;;15.23;8.20;;;0.60;99.90;;;;;;5072825;28;20686;-59
2021/01/24 02:10:43;;;;;;;12.67;8.57;;;0.50;99.90;;;;;;5015368;28;20232;-59
2021/01/24 02:13:22;;;;;;;13.00;8.83;;;0.40;99.90;;;;;;5068470;28;20605;-59
2021/01/24 02:18:50;;;;;;;15.20;9.57;;;0.40;99.90;;;;;;5075425;28;20219;-59
2021/01/24 02:21:30;;;;;;;14.70;9.70;;;0.40;99.90;;;;;;5021285;28;20224;-60
2021/01/24 02:24:12;;;;;;;20.57;10.27;;;0.40;99.90;;;;;;5061103;28;20224;-60
2021/01/24 02:26:48;;;;;;;21.23;9.80;;;0.30;99.90;;;;;;5066865;28;20216;-59
2021/01/24 02:29:46;;;;;;;15.67;9.77;;;0.30;99.90;;;;;;5055192;28;20265;-59
2021/01/24 02:32:23;;;;;;;16.90;9.70;;;0.30;99.90;;;;;;5038018;28;20663;-59
2021/01/24 02:37:49;;;;;;;13.37;8.83;;;0.20;99.90;;;;;;5054143;28;20219;-59
2021/01/24 02:40:23;;;;;;;17.57;9.47;;;0.20;99.90;;;;;;5068329;28;20285;-59
2021/01/24 02:43:10;;;;;;;16.53;9.13;;;0.20;99.90;;;;;;5073186;28;20281;-59
2021/01/24 02:45:45;;;;;;;22.13;9.90;;;0.20;99.90;;;;;;5063236;28;20220;-59
2021/01/24 02:48:15;;;;;;;17.80;9.10;;;0.20;99.90;;;;;;5043518;28;20548;-59
2021/01/24 02:50:52;;;;;;;15.30;8.70;;;0.20;99.90;;;;;;5061043;28;20215;-59
2021/01/24 02:53:21;;;;;;;19.80;8.83;;;0.20;99.90;;;;;;5061807;28;20220;-59
2021/01/24 02:55:48;;;;;;;20.57;9.03;;;0.30;99.90;;;;;;5064766;28;20341;-59
2021/01/24 02:58:16;;;;;;;24.67;8.10;;;0.30;99.90;;;;;;5067199;28;20282;-60
2021/01/24 03:00:43;;;;;;;22.80;8.80;;;0.40;99.90;;;;;;5071033;28;20747;-59
2021/01/24 03:03:34;;;;;;;20.03;8.73;;;0.40;99.90;;;;;;5063800;28;20228;-59
2021/01/24 03:06:05;;;;;;;17.87;8.73;;;0.40;99.90;;;;;;5071504;28;20241;-59
2021/01/24 03:08:54;;;;;;;21.90;8.60;;;0.40;99.90;;;;;;5070686;28;20219;-59
2021/01/24 03:12:16;;;;;;;19.30;9.00;;;0.50;99.90;;;;;;5053548;28;20218;-59
2021/01/24 03:15:22;;;;;;;18.60;8.80;;;0.50;99.90;;;;;;5056237;28;20311;-59
2021/01/24 03:17:50;;;;;;;21.03;8.73;;;0.50;99.90;;;;;;5079931;28;20624;-60
2021/01/24 03:23:22;;;;;;;21.43;9.27;;;0.60;99.90;;;;;;5060180;28;20699;-59
2021/01/24 03:25:59;;;;;;;18.47;8.67;;;0.50;99.90;;;;;;5072951;28;20690;-60
2021/01/24 03:28:48;;;;;;;20.07;9.17;;;0.50;99.90;;;;;;5058687;28;20247;-59
2021/01/24 03:31:18;;;;;;;25.80;10.07;;;0.50;99.90;;;;;;5082901;28;20251;-59
2021/01/24 03:33:46;;;;;;;22.37;10.23;;;0.50;99.90;;;;;;5073050;28;20211;-59
2021/01/24 03:36:17;;;;;;;19.77;9.50;;;0.40;99.90;;;;;;5069406;28;20268;-59
2021/01/24 03:38:48;;;;;;;18.37;8.60;;;0.40;99.90;;;;;;5080331;28;20732;-59
2021/01/24 03:41:37;;;;;;;25.20;9.80;;;0.40;99.90;;;;;;5074154;28;20629;-59
2021/01/24 03:47:40;;;;;;;24.50;9.90;;;0.30;99.90;;;;;;5065916;28;20223;-59
2021/01/24 03:50:09;;;;;;;28.17;10.70;;;0.20;99.90;;;;;;5057325;28;20216;-59
2021/01/24 03:52:41;;;;;;;22.73;10.77;;;0.20;99.90;;;;;;5075011;28;20220;-59
2021/01/24 03:55:25;;;;;;;29.40;10.13;;;0.20;99.90;;;;;;5044933;28;20749;-59
2021/01/24 03:58:01;;;;;;;23.00;10.83;;;0.20;99.90;;;;;;5079004;28;20246;-60
2021/01/24 04:00:40;;;;;;;21.00;10.70;;;0.20;99.90;;;;;;5058463;28;20221;-60
2021/01/24 04:03:30;;;;;;;;;;;;;;;;;;;;;
2021/01/24 04:06:02;;;;;;;24.33;11.10;;;0.20;99.90;;;;;;5069190;28;20609;-60
2021/01/24 04:08:31;;;;;;;22.83;10.80;;;0.20;99.90;;;;;;5076328;28;20216;-60
2021/01/24 04:10:58;;;;;;;22.00;11.05;;;0.20;99.90;;;;;;5071118;28;20303;-60
2021/01/24 04:13:32;;;;;;;22.97;10.83;;;0.20;99.90;;;;;;5056204;28;20282;-60
2021/01/24 04:15:59;;;;;;;26.33;11.83;;;0.20;99.90;;;;;;5085962;28;20242;-59
2021/01/24 04:18:50;;;;;;;29.57;11.63;;;0.20;99.90;;;;;;5056906;28;20212;-59
2021/01/24 04:21:30;;;;;;;29.30;11.07;;;0.20;99.90;;;;;;5006308;28;20224;-59
2021/01/24 04:24:16;;;;;;;26.67;12.00;;;0.20;99.90;;;;;;5074326;28;20218;-59
2021/01/24 04:29:35;;;;;;;25.37;12.07;;;0.20;99.90;;;;;;5029763;28;20699;-60
2021/01/24 04:32:42;;;;;;;27.57;11.17;;;0.20;99.90;;;;;;5041120;28;20236;-60
2021/01/24 04:35:16;;;;;;;30.00;11.60;;;0.10;99.90;;;;;;5060138;28;20211;-60
2021/01/24 04:37:52;;;;;;;32.00;11.27;;;0.10;99.90;;;;;;5077410;28;20251;-60
2021/01/24 04:40:57;;;;;;;24.63;10.50;;;0.10;99.90;;;;;;5056212;28;20228;-60
2021/01/24 04:43:28;;;;;;;30.83;11.73;;;0.10;99.90;;;;;;5077317;28;20215;-60
2021/01/24 04:45:56;;;;;;;25.93;11.80;;;0.10;99.90;;;;;;5056576;28;20247;-60
2021/01/24 04:49:00;;;;;;;22.93;11.03;;;0.10;99.90;;;;;;5072912;28;20220;-60
2021/01/24 04:51:31;;;;;;;27.40;12.30;;;0.10;99.90;;;;;;5055292;28;20213;-60
2021/01/24 04:54:14;;;;;;;27.63;12.07;;;0.10;99.90;;;;;;5056225;28;20224;-60
2021/01/24 04:57:01;;;;;;;32.40;12.37;;;0.10;99.90;;;;;;5073604;28;20220;-60
2021/01/24 04:59:35;;;;;;;29.27;11.30;;;0.10;99.90;;;;;;5055401;28;20760;-60
2021/01/24 05:02:34;;;;;;;31.77;11.03;;;0.10;99.90;;;;;;5054016;28;20228;-60
2021/01/24 05:05:01;;;;;;;23.60;11.23;;;0.10;99.90;;;;;;5073571;28;20223;-60
2021/01/24 05:07:32;;;;;;;31.77;12.63;;;0.10;99.90;;;;;;5070999;28;20208;-60
2021/01/24 05:10:07;;;;;;;25.80;11.23;;;0.10;99.90;;;;;;5066148;28;20220;-60
2021/01/24 05:12:36;;;;;;;25.60;10.50;;;0.20;99.90;;;;;;5070720;28;20328;-60
2021/01/24 05:15:08;;;;;;;29.50;11.93;;;0.20;99.90;;;;;;5049417;28;20270;-60
2021/01/24 05:17:53;;;;;;;27.37;11.50;;;0.20;99.90;;;;;;5075997;28;20759;-60
2021/01/24 05:23:10;;;;;;;25.20;10.97;;;0.10;99.90;;;;;;5083051;28;20219;-60
2021/01/24 05:25:39;;;;;;;24.67;10.80;;;0.10;99.90;;;;;;5069318;28;20691;-61
2021/01/24 05:28:54;;;;;;;27.83;10.70;;;0.10;99.90;;;;;;5060353;28;20216;-60
2021/01/24 05:31:31;;;;;;;24.63;11.13;;;0.10;99.90;;;;;;5057085;28;20220;-60
2021/01/24 05:34:04;;;;;;;31.63;11.80;;;0.20;99.90;;;;;;5074967;28;20302;-60
2021/01/24 05:36:43;;;;;;;23.30;10.17;;;0.20;99.90;;;;;;5064855;28;20219;-60
2021/01/24 05:39:23;;;;;;;23.33;10.67;;;0.10;99.90;;;;;;5074063;28;20615;-60
2021/01/24 05:41:56;;;;;;;27.00;10.70;;;0.00;99.90;;;;;;5071652;28;20755;-60
2021/01/24 05:47:33;;;;;;;24.73;11.47;;;-0.10;99.90;;;;;;5053904;28;20284;-60
2021/01/24 05:50:01;;;;;;;21.43;11.27;;;-0.10;99.90;;;;;;5074315;28;20551;-60
2021/01/24 05:52:41;;;;;;;24.93;11.53;;;-0.10;99.90;;;;;;5062206;28;20220;-60
2021/01/24 05:55:10;;;;;;;25.47;11.30;;;0.00;99.90;;;;;;5064118;28;20212;-60
2021/01/24 05:57:51;;;;;;;26.37;10.53;;;-0.10;99.90;;;;;;5057080;28;20234;-61
2021/01/24 06:00:29;;;;;;;21.43;11.27;;;-0.20;99.90;;;;;;5068350;28;20261;-60
2021/01/24 06:03:03;;;;;;;23.37;11.00;;;-0.20;99.90;;;;;;5082998;28;20701;-60
2021/01/24 06:05:32;;;;;;;26.80;12.73;;;-0.30;99.90;;;;;;5073126;28;20208;-61
2021/01/24 06:11:17;;;;;;;26.67;11.60;;;-0.10;99.90;;;;;;5074916;28;20216;-61
2021/01/24 06:14:02;;;;;;;26.73;11.87;;;-0.20;99.90;;;;;;5072787;28;20621;-61
2021/01/24 06:16:37;;;;;;;29.87;12.63;;;-0.20;99.90;;;;;;5078448;28;20240;-61
2021/01/24 06:19:18;;;;;;;25.77;12.17;;;-0.20;99.90;;;;;;5065259;28;20220;-61
2021/01/24 06:24:57;;;;;;;28.07;12.10;;;-0.10;99.90;;;;;;5065703;28;20209;-61
2021/01/24 06:27:30;;;;;;;25.50;12.07;;;0.00;99.90;;;;;;5068387;28;20239;-64
2021/01/24 06:30:00;;;;;;;30.27;12.60;;;-0.10;99.90;;;;;;5078821;28;20347;-64
2021/01/24 06:32:37;;;;;;;25.33;12.07;;;-0.10;99.90;;;;;;5069153;28;20314;-63
2021/01/24 06:35:19;;;;;;;25.50;12.63;;;-0.10;99.90;;;;;;5076080;28;20222;-63
2021/01/24 06:38:00;;;;;;;28.50;12.73;;;-0.20;99.90;;;;;;5045611;28;20309;-63
2021/01/24 06:40:51;;;;;;;26.27;12.43;;;-0.20;99.90;;;;;;5077214;28;20296;-63
2021/01/24 06:43:44;;;;;;;25.33;13.27;;;-0.30;99.90;;;;;;5070356;28;20215;-63
2021/01/24 06:46:49;;;;;;;33.43;13.33;;;-0.20;99.90;;;;;;5028290;28;20633;-63
2021/01/24 06:49:40;;;;;;;24.83;12.10;;;-0.30;99.90;;;;;;5011927;28;20244;-63
2021/01/24 06:52:25;;;;;;;29.57;13.70;;;-0.30;99.90;;;;;;5022035;28;20258;-63
2021/01/24 06:55:27;;;;;;;35.53;13.13;;;-0.30;99.90;;;;;;4985614;28;20225;-63
2021/01/24 06:57:54;;;;;;;28.50;13.67;;;-0.30;99.90;;;;;;5027798;28;20217;-63
2021/01/24 07:03:20;;;;;;;31.80;13.90;;;-0.30;99.90;;;;;;5003800;28;20279;-63
2021/01/24 07:06:41;;;;;;;32.03;14.43;;;-0.40;99.90;;;;;;5033270;28;20227;-63
2021/01/24 07:09:53;;;;;;;32.37;14.03;;;-0.40;99.90;;;;;;5024433;28;20519;-63
2021/01/24 07:12:55;;;;;;;30.87;13.57;;;-0.40;99.90;;;;;;5032292;28;20781;-64
2021/01/24 07:15:40;;;;;;;28.80;14.03;;;-0.40;99.90;;;;;;5010705;28;20316;-64
2021/01/24 07:18:12;;;;;;;38.63;15.63;;;-0.30;99.90;;;;;;5052566;28;20632;-64
2021/01/24 07:21:07;;;;;;;37.83;16.37;;;-0.30;99.90;;;;;;5053601;28;20826;-65
2021/01/24 07:26:38;;;;;;;31.57;14.53;;;-0.30;99.90;;;;;;5035382;28;20228;-64
2021/01/24 07:29:14;;;;;;;34.80;15.63;;;-0.30;99.90;;;;;;5051911;28;20680;-64
2021/01/24 07:31:57;;;;;;;33.57;16.17;;;-0.30;99.90;;;;;;5050009;28;20270;-64
2021/01/24 07:34:26;;;;;;;30.83;15.33;;;-0.30;99.90;;;;;;5049185;28;20623;-64
2021/01/24 07:36:58;;;;;;;28.87;14.33;;;-0.30;99.90;;;;;;5046434;28;20208;-64
2021/01/24 07:40:37;;;;;;;31.10;15.37;;;-0.30;99.90;;;;;;5052621;28;20269;-64
2021/01/24 07:43:23;;;;;;;36.43;16.00;;;-0.30;99.90;;;;;;5052178;28;20200;-64
2021/01/24 07:46:13;;;;;;;28.10;15.13;;;-0.30;99.90;;;;;;5050121;28;20204;-64
2021/01/24 07:48:48;;;;;;;30.30;14.83;;;-0.30;99.90;;;;;;5051454;28;20312;-64
2021/01/24 07:51:42;;;;;;;31.00;15.10;;;-0.30;99.90;;;;;;5057945;28;20274;-64
2021/01/24 07:54:26;;;;;;;32.60;15.20;;;-0.30;99.90;;;;;;5043130;28;20221;-64
2021/01/24 07:57:17;;;;;;;33.87;14.90;;;-0.40;99.90;;;;;;5049905;28;20218;-64
2021/01/24 08:00:17;;;;;;;31.67;14.97;;;-0.40;99.90;;;;;;5050050;28;20362;-64
2021/01/24 08:02:56;;;;;;;31.20;15.07;;;-0.40;99.90;;;;;;5072872;28;20227;-64
2021/01/24 08:08:52;;;;;;;32.30;14.90;;;-0.40;99.90;;;;;;5063693;28;20212;-64
2021/01/24 08:12:37;;;;;;;31.63;15.27;;;-0.50;99.90;;;;;;5037850;28;20219;-66
2021/01/24 08:15:06;;;;;;;31.97;15.50;;;-0.50;99.90;;;;;;5066071;28;20280;-67
2021/01/24 08:18:05;;;;;;;31.57;16.27;;;-0.50;99.90;;;;;;5077047;28;20205;-66
2021/01/24 08:20:33;;;;;;;34.73;16.97;;;-0.50;99.90;;;;;;5039457;28;20735;-66
2021/01/24 08:23:08;;;;;;;39.97;17.50;;;-0.40;99.90;;;;;;5066319;28;20205;-66
2021/01/24 08:25:35;;;;;;;38.93;17.70;;;-0.40;99.90;;;;;;5070773;28;20215;-66
2021/01/24 08:28:52;;;;;;;33.40;16.13;;;-0.30;99.90;;;;;;5041475;28;20713;-66
2021/01/24 08:31:29;;;;;;;41.67;17.63;;;-0.20;99.90;;;;;;5071081;28;20211;-65
2021/01/24 08:34:11;;;;;;;36.70;16.60;;;-0.10;99.90;;;;;;5058196;28;20219;-66
2021/01/24 08:36:44;;;;;;;32.77;15.73;;;-0.10;99.90;;;;;;5044820;28;20627;-66
2021/01/24 08:42:23;;;;;;;34.93;16.37;;;0.00;99.90;;;;;;5070817;28;20265;-66
2021/01/24 08:45:18;;;;;;;34.40;16.00;;;0.00;99.90;;;;;;5059499;28;20226;-66
2021/01/24 08:47:57;;;;;;;40.03;16.63;;;0.10;99.90;;;;;;5073872;28;20226;-65
2021/01/24 08:50:45;;;;;;;31.73;15.60;;;0.20;99.90;;;;;;5066592;28;20211;-65
2021/01/24 08:53:30;;;;;;;29.90;16.30;;;0.30;99.90;;;;;;5060009;28;20233;-66
2021/01/24 08:58:55;;;;;;;30.03;16.27;;;0.40;99.90;;;;;;5043341;28;20231;-65
2021/01/24 09:01:23;;;;;;;32.33;15.47;;;0.50;99.90;;;;;;5072136;28;20216;-63
2021/01/24 09:03:55;;;;;;;29.07;15.63;;;0.50;99.90;;;;;;5075901;28;20273;-65
2021/01/24 09:07:19;;;;;;;29.63;14.27;;;0.60;99.90;;;;;;5077479;28;20578;-65
2021/01/24 09:13:05;;;;;;;31.57;14.20;;;0.80;99.90;;;;;;5074150;28;20288;-66
2021/01/24 09:15:41;;;;;;;27.23;13.87;;;0.90;99.90;;;;;;5075066;28;20223;-65
2021/01/24 09:18:16;;;;;;;25.50;13.40;;;1.00;99.90;;;;;;5073836;28;20595;-65
2021/01/24 09:21:07;;;;;;;29.43;13.37;;;1.00;99.90;;;;;;5071997;28;20204;-65
2021/01/24 09:23:55;;;;;;;;;;;;;;;;;;;;;
2021/01/24 09:30:27;;;;;;;24.63;11.97;;;1.40;99.90;;;;;;5087267;28;20238;-65
2021/01/24 09:40:35;;;;;;;23.10;11.93;;;1.70;99.90;;;;;;4995740;28;20693;-65
2021/01/24 09:43:03;;;;;;;18.80;12.23;;;1.90;99.90;;;;;;4992205;28;20647;-64
2021/01/24 09:45:59;;;;;;;28.67;13.43;;;1.90;99.90;;;;;;4987113;28;20215;-63
2021/01/24 09:48:33;;;;;;;23.90;12.43;;;2.00;99.90;;;;;;5065453;28;20225;-63
2021/01/24 09:56:57;;;;;;;23.07;13.13;;;2.30;99.90;;;;;;5056768;28;20208;-63
2021/01/24 09:59:30;;;;;;;20.97;11.27;;;2.40;99.90;;;;;;5059380;28;20220;-63
2021/01/24 10:02:04;;;;;;;21.47;12.43;;;2.60;99.90;;;;;;5068490;28;20239;-63
2021/01/24 10:04:37;;;;;;;18.80;11.97;;;2.70;99.90;;;;;;5067803;28;20692;-63
2021/01/24 10:07:13;;;;;;;20.47;12.03;;;2.80;99.90;;;;;;5057111;28;20242;-63
2021/01/24 10:09:46;;;;;;;22.83;11.80;;;2.80;99.90;;;;;;5069675;28;20597;-63
2021/01/24 10:12:21;;;;;;;20.20;11.83;;;2.90;99.90;;;;;;5077520;28;20274;-63
2021/01/24 10:14:59;;;;;;;20.47;11.67;;;2.90;99.90;;;;;;5066697;28;20211;-63
2021/01/24 10:20:32;;;;;;;18.83;11.37;;;2.90;99.90;;;;;;5032459;28;20312;-63
2021/01/24 10:23:10;;;;;;;18.53;11.13;;;2.80;99.90;;;;;;5036108;28;20553;-63
2021/01/24 10:25:38;;;;;;;19.47;11.40;;;2.90;99.90;;;;;;5032869;28;20240;-63
2021/01/24 10:30:59;;;;;;;21.70;12.17;;;2.80;99.90;;;;;;5041359;28;20221;-63
2021/01/24 10:33:36;;;;;;;23.87;11.80;;;2.80;99.90;;;;;;5030269;28;20718;-65
2021/01/24 10:36:21;;;;;;;22.97;12.57;;;2.70;99.90;;;;;;5011091;28;20244;-64
2021/01/24 10:39:05;;;;;;;20.90;12.70;;;2.80;99.90;;;;;;5034043;28;20269;-64
2021/01/24 10:41:53;;;;;;;29.07;15.20;;;2.80;99.90;;;;;;5068057;28;20220;-64
2021/01/24 10:44:25;;;;;;;26.20;14.93;;;2.70;99.90;;;;;;5075197;28;20539;-64
2021/01/24 10:46:52;;;;;;;33.40;15.33;;;2.80;99.90;;;;;;5073216;28;20196;-64
2021/01/24 10:49:20;;;;;;;24.50;12.70;;;2.80;99.90;;;;;;5065828;28;20220;-64
2021/01/24 10:52:01;;;;;;;25.50;12.17;;;2.70;99.90;;;;;;5071711;28;20542;-64
2021/01/24 10:54:43;;;;;;;26.63;11.97;;;2.60;99.90;;;;;;5074032;28;20211;-64
2021/01/24 10:57:24;;;;;;;25.33;12.90;;;2.70;99.90;;;;;;5060153;28;20277;-64
2021/01/24 11:00:14;;;;;;;20.60;11.20;;;2.70;99.90;;;;;;5049650;28;20270;-64
2021/01/24 11:02:52;;;;;;;23.50;12.00;;;2.80;99.90;;;;;;5047026;28;20227;-65
2021/01/24 11:05:38;;;;;;;24.23;11.33;;;2.80;99.90;;;;;;5063735;28;20259;-64
2021/01/24 11:08:15;;;;;;;20.40;11.63;;;2.90;99.90;;;;;;5060299;28;20216;-65
2021/01/24 11:11:01;;;;;;;23.07;11.23;;;3.10;99.90;;;;;;5047930;28;20219;-65
2021/01/24 11:13:47;;;;;;;19.30;11.10;;;3.10;99.90;;;;;;5023907;28;20681;-66
2021/01/24 11:16:34;;;;;;;25.20;12.30;;;3.00;99.90;;;;;;5059668;28;20604;-65
2021/01/24 11:19:01;;;;;;;25.03;13.40;;;3.10;99.90;;;;;;5061372;28;20543;-65
2021/01/24 11:21:29;;;;;;;24.20;11.23;;;3.20;99.90;;;;;;5057883;28;20211;-65
2021/01/24 11:23:59;;;;;;;16.63;10.03;;;3.30;99.90;;;;;;5055672;28;20682;-65
2021/01/24 11:26:27;;;;;;;14.80;9.67;;;3.30;99.90;;;;;;5058381;28;20228;-64
2021/01/24 11:29:20;;;;;;;19.97;9.93;;;3.10;99.90;;;;;;5049536;28;20235;-65
2021/01/24 11:31:58;;;;;;;19.27;10.83;;;3.00;99.90;;;;;;5056598;28;20235;-65
2021/01/24 11:34:39;;;;;;;16.23;9.93;;;3.00;99.90;;;;;;5059728;28;20280;-65
2021/01/24 11:37:31;;;;;;;19.60;10.23;;;3.00;99.90;;;;;;5059180;28;20231;-65
2021/01/24 11:40:02;;;;;;;21.37;10.40;;;2.90;99.90;;;;;;5057298;28;20212;-65
2021/01/24 11:42:30;;;;;;;22.17;11.10;;;2.80;99.90;;;;;;5060361;28;20717;-65
2021/01/24 11:45:16;;;;;;;24.03;11.33;;;2.80;99.90;;;;;;5061612;28;20296;-65
2021/01/24 11:47:52;;;;;;;19.83;10.97;;;2.80;99.90;;;;;;5066888;28;20219;-65
2021/01/24 11:50:20;;;;;;;21.93;10.80;;;2.80;99.90;;;;;;5057754;28;20217;-65
2021/01/24 11:53:21;;;;;;;21.73;10.53;;;2.80;99.90;;;;;;5076707;28;20247;-65
2021/01/24 11:55:58;;;;;;;23.70;11.00;;;2.80;99.90;;;;;;5035669;28;20668;-66
2021/01/24 11:58:30;;;;;;;21.63;11.07;;;2.80;99.90;;;;;;5058965;28;20219;-65
2021/01/24 12:01:02;;;;;;;21.20;11.50;;;2.80;99.90;;;;;;5050559;28;20226;-65
2021/01/24 12:03:37;;;;;;;17.90;9.90;;;2.80;99.90;;;;;;5038573;28;20755;-65
2021/01/24 12:06:13;;;;;;;18.53;10.17;;;2.80;99.90;;;;;;5042786;28;20220;-66
2021/01/24 12:08:41;;;;;;;16.47;9.63;;;2.80;99.90;;;;;;5036670;28;20263;-65
2021/01/24 12:11:27;;;;;;;20.40;9.43;;;2.80;99.90;;;;;;5052219;28;20208;-65
2021/01/24 12:13:55;;;;;;;18.00;9.63;;;2.80;99.90;;;;;;5037799;28;20690;-65
2021/01/24 12:16:26;;;;;;;15.87;8.77;;;2.70;99.90;;;;;;5035783;28;20227;-65
2021/01/24 12:19:00;;;;;;;14.67;9.30;;;2.70;99.90;;;;;;5039415;28;20217;-65
2021/01/24 12:21:37;;;;;;;16.53;8.90;;;2.70;99.90;;;;;;5037197;28;20221;-65
2021/01/24 12:24:08;;;;;;;13.37;8.53;;;2.60;99.90;;;;;;5046992;28;20569;-65
2021/01/24 12:29:26;;;;;;;16.43;9.07;;;2.60;99.90;;;;;;5045896;28;20227;-65
2021/01/24 12:32:00;;;;;;;16.33;8.23;;;2.50;99.90;;;;;;5036041;28;20240;-65
2021/01/24 12:34:30;;;;;;;13.50;7.70;;;2.60;99.90;;;;;;5041672;28;20674;-65
2021/01/24 12:37:06;;;;;;;13.93;8.37;;;2.60;99.90;;;;;;5039639;28;20267;-65
2021/01/24 12:39:39;;;;;;;18.67;10.20;;;2.60;99.90;;;;;;5042745;28;20213;-65
2021/01/24 12:42:18;;;;;;;40.67;20.27;;;2.60;99.90;;;;;;5039750;28;20262;-65
2021/01/24 12:44:56;;;;;;;27.07;11.93;;;2.60;99.90;;;;;;5041851;28;20236;-65
2021/01/24 12:47:24;;;;;;;29.70;15.00;;;2.60;99.90;;;;;;5044273;28;20267;-65
2021/01/24 12:50:10;;;;;;;23.13;10.27;;;2.60;99.90;;;;;;5043565;28;20217;-65
2021/01/24 12:52:52;;;;;;;18.67;9.37;;;2.60;99.90;;;;;;5040325;28;20213;-65
2021/01/24 12:55:19;;;;;;;18.07;10.53;;;2.70;99.90;;;;;;5042419;28;21013;-65
2021/01/24 13:00:43;;;;;;;15.10;8.90;;;2.70;99.90;;;;;;5044725;28;20275;-65
2021/01/24 13:03:14;;;;;;;17.17;9.00;;;2.70;99.90;;;;;;5046743;28;20674;-65
2021/01/24 13:06:00;;;;;;;20.13;9.57;;;2.70;99.90;;;;;;5059328;28;20208;-65
2021/01/24 13:08:27;;;;;;;15.00;9.90;;;2.80;99.90;;;;;;5060058;28;20219;-65
2021/01/24 13:11:02;;;;;;;20.13;9.57;;;2.70;99.90;;;;;;5063953;28;20283;-65
2021/01/24 13:13:30;;;;;;;37.70;20.60;;;2.70;99.90;;;;;;5061643;28;20221;-66
2021/01/24 13:16:12;;;;;;;18.83;10.27;;;2.70;99.90;;;;;;5048359;28;20215;-66
2021/01/24 13:18:56;;;;;;;17.90;10.90;;;2.60;99.90;;;;;;5060114;28;20208;-66
2021/01/24 13:21:31;;;;;;;17.67;10.00;;;2.70;99.90;;;;;;5061846;28;20302;-65
2021/01/24 13:23:59;;;;;;;20.57;11.53;;;2.70;99.90;;;;;;5059056;28;20219;-65
2021/01/24 13:26:32;;;;;;;18.73;10.83;;;2.80;99.90;;;;;;5057902;28;20261;-65
2021/01/24 13:29:19;;;;;;;16.17;9.03;;;2.90;99.90;;;;;;5050751;28;20576;-66
2021/01/24 13:31:50;;;;;;;18.47;10.80;;;2.90;99.90;;;;;;5057375;28;20785;-65
2021/01/24 13:34:21;;;;;;;16.67;9.33;;;2.90;99.90;;;;;;5060100;28;20220;-66
2021/01/24 13:37:02;;;;;;;20.50;11.37;;;2.90;99.90;;;;;;5059068;28;20224;-65
2021/01/24 13:39:39;;;;;;;37.17;18.90;;;3.00;99.90;;;;;;5043467;28;20211;-66
2021/01/24 13:42:07;;;;;;;63.37;30.67;;;3.00;99.90;;;;;;5060180;28;20212;-66
2021/01/24 13:44:48;;;;;;;21.17;11.50;;;3.10;99.90;;;;;;5046516;28;20601;-66
2021/01/24 13:47:27;;;;;;;63.50;31.97;;;3.10;99.90;;;;;;5057492;28;20247;-66
2021/01/24 13:50:01;;;;;;;110.63;57.53;;;3.20;99.90;;;;;;5060243;28;20303;-66
2021/01/24 13:52:36;;;;;;;89.80;46.53;;;3.20;99.90;;;;;;5059525;28;20797;-66
2021/01/24 13:55:09;;;;;;;63.10;32.00;;;3.20;99.90;;;;;;5056367;28;20653;-66
2021/01/24 13:57:56;;;;;;;16.83;9.17;;;3.10;99.90;;;;;;5056204;28;20226;-66
2021/01/24 14:00:27;;;;;;;21.20;12.10;;;3.00;99.90;;;;;;5051813;28;20273;-65
2021/01/24 14:02:58;;;;;;;67.27;33.63;;;3.00;99.90;;;;;;5058196;28;20211;-66
2021/01/24 14:05:25;;;;;;;51.70;27.37;;;3.00;99.90;;;;;;5054133;28;20243;-66
2021/01/24 14:07:53;;;;;;;76.33;37.77;;;2.90;99.90;;;;;;5054756;28;20224;-65
2021/01/24 14:10:38;;;;;;;81.03;37.33;;;2.90;99.90;;;;;;5052741;28;20236;-66
2021/01/24 14:13:16;;;;;;;52.70;25.37;;;3.00;99.90;;;;;;5051236;28;20247;-66
2021/01/24 14:19:35;;;;;;;35.60;17.83;;;2.90;99.90;;;;;;4934288;29;20234;-66
2021/01/24 14:22:08;;;;;;;140.90;58.33;;;2.90;99.90;;;;;;4950385;28;20328;-66
2021/01/24 14:24:41;;;;;;;52.60;26.07;;;2.80;99.90;;;;;;5004513;28;20210;-66
2021/01/24 14:27:25;;;;;;;29.27;16.17;;;2.90;99.90;;;;;;4997777;28;20406;-66
2021/01/24 14:30:13;;;;;;;21.53;11.77;;;2.90;99.90;;;;;;5007464;28;20231;-66
2021/01/24 14:32:55;;;;;;;14.33;10.27;;;2.90;99.90;;;;;;5002708;28;20251;-66
2021/01/24 14:38:18;;;;;;;15.77;8.67;;;2.90;99.90;;;;;;5000236;28;20225;-65
2021/01/24 14:43:32;;;;;;;8.87;6.37;;;2.90;99.90;;;;;;4991838;28;20310;-65
2021/01/24 14:46:03;;;;;;;10.47;6.40;;;2.90;99.90;;;;;;4986776;28;20226;-66
2021/01/24 14:48:37;;;;;;;9.50;5.60;;;2.90;99.90;;;;;;5006548;28;20226;-66
2021/01/24 14:51:21;;;;;;;10.43;6.60;;;2.90;99.90;;;;;;4992035;28;20218;-66
2021/01/24 14:54:20;;;;;;;26.30;14.57;;;2.90;99.90;;;;;;5015814;28;20257;-65
2021/01/24 14:59:59;;;;;;;30.30;14.87;;;2.90;99.90;;;;;;5064600;28;20220;-66
2021/01/24 15:02:36;;;;;;;14.17;6.47;;;2.80;99.90;;;;;;5066088;28;20204;-66
2021/01/24 15:05:07;;;;;;;9.93;5.20;;;2.80;99.90;;;;;;5063834;28;20674;-65
2021/01/24 15:07:41;;;;;;;12.43;7.33;;;2.90;99.90;;;;;;5066152;28;20212;-66
2021/01/24 15:10:15;;;;;;;8.10;5.33;;;2.90;99.90;;;;;;5065537;28;23517;-65
2021/01/24 15:12:45;;;;;;;6.63;5.03;;;2.90;99.90;;;;;;5064349;28;20271;-65
2021/01/24 15:15:26;;;;;;;6.10;5.17;;;2.80;99.90;;;;;;5059586;28;20216;-65
2021/01/24 15:17:53;;;;;;;11.77;5.83;;;2.80;99.90;;;;;;5062406;28;20306;-65